sensor_id;sensor_type;location;lat;lon;timestamp;pressure;altitude;pressure_sealevel;temperature;humidity
56811;BME280;42691;47.234;27.494;2023-01-29T00:01:28;99868.81;;;5.95;100.00
56811;BME280;42691;47.234;27.494;2023-01-29T00:03:55;99885.75;;;6.05;100.00
56811;BME280;42691;47.234;27.494;2023-01-29T00:06:20;99886.75;;;6.00;100.00
56811;BME280;42691;47.234;27.494;2023-01-29T00:08:48;99883.38;;;5.98;100.00
56811;BME280;42691;47.234;27.494;2023-01-29T00:11:14;99880.84;;;5.96;100.00
56811;BME280;42691;47.234;27.494;2023-01-29T00:13:41;99883.38;;;5.98;100.00
56811;BME280;42691;47.234;27.494;2023-01-29T00:16:06;99892.00;;;5.97;100.00
56811;BME280;42691;47.234;27.494;2023-01-29T00:18:32;99855.44;;;5.78;100.00
56811;BME280;42691;47.234;27.494;2023-01-29T00:20:57;99879.91;;;5.99;100.00
56811;BME280;42691;47.234;27.494;2023-01-29T00:23:22;99886.63;;;6.04;100.00
56811;BME280;42691;47.234;27.494;2023-01-29T00:25:49;99891.00;;;6.02;100.00
56811;BME280;42691;47.234;27.494;2023-01-29T00:28:14;99893.59;;;6.02;100.00
56811;BME280;42691;47.234;27.494;2023-01-29T00:30:40;99883.41;;;5.96;100.00
56811;BME280;42691;47.234;27.494;2023-01-29T00:33:06;99893.63;;;6.01;100.00
56811;BME280;42691;47.234;27.494;2023-01-29T00:35:32;99896.16;;;6.02;100.00
56811;BME280;42691;47.234;27.494;2023-01-29T00:37:58;99896.00;;;6.08;100.00
56811;BME280;42691;47.234;27.494;2023-01-29T00:40:25;99897.66;;;6.11;100.00
56811;BME280;42691;47.234;27.494;2023-01-29T00:42:51;99896.00;;;6.08;100.00
56811;BME280;42691;47.234;27.494;2023-01-29T00:45:35;99896.84;;;6.09;100.00
56811;BME280;42691;47.234;27.494;2023-01-29T00:48:04;99897.69;;;6.09;100.00
56811;BME280;42691;47.234;27.494;2023-01-29T00:50:30;99902.91;;;6.08;100.00
56811;BME280;42691;47.234;27.494;2023-01-29T00:52:56;99902.09;;;6.06;100.00
56811;BME280;42691;47.234;27.494;2023-01-29T00:55:21;99896.81;;;6.10;100.00
56811;BME280;42691;47.234;27.494;2023-01-29T00:57:47;99901.09;;;6.11;100.00
56811;BME280;42691;47.234;27.494;2023-01-29T01:00:16;99902.84;;;6.09;100.00
56811;BME280;42691;47.234;27.494;2023-01-29T01:02:42;99898.59;;;6.08;100.00
56811;BME280;42691;47.234;27.494;2023-01-29T01:05:26;99904.47;;;6.13;100.00
56811;BME280;42691;47.234;27.494;2023-01-29T01:07:54;99900.16;;;6.14;100.00
56811;BME280;42691;47.234;27.494;2023-01-29T01:10:23;99900.81;;;6.20;100.00
56811;BME280;42691;47.234;27.494;2023-01-29T01:13:16;99897.34;;;6.21;100.00
56811;BME280;42691;47.234;27.494;2023-01-29T01:15:41;99894.91;;;6.17;100.00
56811;BME280;42691;47.234;27.494;2023-01-29T01:18:06;99900.91;;;6.17;100.00
56811;BME280;42691;47.234;27.494;2023-01-29T01:20:33;99900.91;;;6.17;100.00
56811;BME280;42691;47.234;27.494;2023-01-29T01:22:59;99904.44;;;6.15;100.00
56811;BME280;42691;47.234;27.494;2023-01-29T01:25:25;99902.69;;;6.15;100.00
56811;BME280;42691;47.234;27.494;2023-01-29T01:27:55;99907.09;;;6.12;100.00
56811;BME280;42691;47.234;27.494;2023-01-29T01:30:21;99907.09;;;6.12;100.00
56811;BME280;42691;47.234;27.494;2023-01-29T01:32:47;99904.78;;;6.01;100.00
56811;BME280;42691;47.234;27.494;2023-01-29T01:35:12;99903.81;;;6.05;100.00
56811;BME280;42691;47.234;27.494;2023-01-29T01:37:39;99906.44;;;6.04;100.00
56811;BME280;42691;47.234;27.494;2023-01-29T01:40:16;99896.16;;;6.02;100.00
56811;BME280;42691;47.234;27.494;2023-01-29T01:42:43;99902.69;;;6.15;100.00
56811;BME280;42691;47.234;27.494;2023-01-29T01:45:34;99904.50;;;6.12;100.00
56811;BME280;42691;47.234;27.494;2023-01-29T01:48:23;99905.47;;;6.08;100.00
56811;BME280;42691;47.234;27.494;2023-01-29T01:51:03;99912.59;;;6.00;100.00
56811;BME280;42691;47.234;27.494;2023-01-29T01:53:40;99924.66;;;5.99;100.00
56811;BME280;42691;47.234;27.494;2023-01-29T01:56:18;99914.31;;;5.99;100.00
56811;BME280;42691;47.234;27.494;2023-01-29T01:58:53;99928.22;;;5.93;100.00
56811;BME280;42691;47.234;27.494;2023-01-29T02:01:19;99920.06;;;5.75;100.00
56811;BME280;42691;47.234;27.494;2023-01-29T02:04:05;99920.88;;;5.77;100.00
56811;BME280;42691;47.234;27.494;2023-01-29T02:06:51;99933.19;;;5.65;100.00
56811;BME280;42691;47.234;27.494;2023-01-29T02:09:49;99930.66;;;5.64;100.00
56811;BME280;42691;47.234;27.494;2023-01-29T02:12:17;99924.75;;;5.57;100.00
56811;BME280;42691;47.234;27.494;2023-01-29T02:14:43;99926.72;;;5.48;100.00
56811;BME280;42691;47.234;27.494;2023-01-29T02:17:12;99943.72;;;5.56;100.00
56811;BME280;42691;47.234;27.494;2023-01-29T02:36:45;99941.44;;;5.80;100.00
56811;BME280;42691;47.234;27.494;2023-01-29T02:39:14;99944.22;;;5.72;100.00
56811;BME280;42691;47.234;27.494;2023-01-29T02:44:50;99949.56;;;5.64;100.00
56811;BME280;42691;47.234;27.494;2023-01-29T02:47:59;99945.97;;;5.70;100.00
56811;BME280;42691;47.234;27.494;2023-01-29T02:53:03;99944.09;;;5.77;100.00
56811;BME280;42691;47.234;27.494;2023-01-29T02:55:35;99953.53;;;5.78;100.00
56811;BME280;42691;47.234;27.494;2023-01-29T02:58:16;99944.19;;;5.74;100.00
56811;BME280;42691;47.234;27.494;2023-01-29T03:00:46;99950.97;;;5.78;100.00
56811;BME280;42691;47.234;27.494;2023-01-29T03:03:16;99953.69;;;5.72;100.00
56811;BME280;42691;47.234;27.494;2023-01-29T03:05:57;99964.00;;;5.72;100.00
56811;BME280;42691;47.234;27.494;2023-01-29T03:08:45;99956.19;;;5.75;100.00
56811;BME280;42691;47.234;27.494;2023-01-29T03:11:15;99960.53;;;5.36;100.00
56811;BME280;42691;47.234;27.494;2023-01-29T03:13:46;99961.22;;;5.44;100.00
56811;BME280;42691;47.234;27.494;2023-01-29T03:18:59;99967.78;;;5.58;100.00
56811;BME280;42691;47.234;27.494;2023-01-29T03:21:32;99960.03;;;5.58;100.00
56811;BME280;42691;47.234;27.494;2023-01-29T03:27:19;99955.47;;;5.70;100.00
56811;BME280;42691;47.234;27.494;2023-01-29T03:30:06;99963.19;;;5.70;100.00
56811;BME280;42691;47.234;27.494;2023-01-29T03:32:54;99968.38;;;5.70;100.00
56811;BME280;42691;47.234;27.494;2023-01-29T03:35:24;99959.78;;;5.69;100.00
56811;BME280;42691;47.234;27.494;2023-01-29T03:38:03;99970.72;;;5.79;100.00
56811;BME280;42691;47.234;27.494;2023-01-29T03:40:40;99974.88;;;5.84;100.00
56811;BME280;42691;47.234;27.494;2023-01-29T03:43:14;99966.34;;;5.82;100.00
56811;BME280;42691;47.234;27.494;2023-01-29T03:52:22;99975.03;;;5.78;100.00
56811;BME280;42691;47.234;27.494;2023-01-29T03:57:08;99972.41;;;5.80;100.00
56811;BME280;42691;47.234;27.494;2023-01-29T03:59:53;99976.72;;;5.79;100.00
56811;BME280;42691;47.234;27.494;2023-01-29T04:02:23;99972.41;;;5.80;100.00
56811;BME280;42691;47.234;27.494;2023-01-29T04:05:00;99977.66;;;5.77;100.00
56811;BME280;42691;47.234;27.494;2023-01-29T04:07:29;99982.72;;;5.81;100.00
56811;BME280;42691;47.234;27.494;2023-01-29T04:10:07;99987.75;;;5.86;100.00
56811;BME280;42691;47.234;27.494;2023-01-29T04:12:37;99979.13;;;5.87;100.00
56811;BME280;42691;47.234;27.494;2023-01-29T04:15:10;99982.59;;;5.86;100.00
56811;BME280;42691;47.234;27.494;2023-01-29T04:17:40;99975.81;;;5.82;100.00
56811;BME280;42691;47.234;27.494;2023-01-29T04:20:08;99980.06;;;5.84;100.00
56811;BME280;42691;47.234;27.494;2023-01-29T04:22:35;99974.88;;;5.84;100.00
56811;BME280;42691;47.234;27.494;2023-01-29T04:25:05;99962.94;;;5.80;100.00
56811;BME280;42691;47.234;27.494;2023-01-29T04:27:39;99975.63;;;5.91;100.00
56811;BME280;42691;47.234;27.494;2023-01-29T04:33:14;99980.91;;;5.85;100.00
56811;BME280;42691;47.234;27.494;2023-01-29T04:38:40;99977.50;;;5.83;100.00
56811;BME280;42691;47.234;27.494;2023-01-29T04:41:30;99963.88;;;5.78;100.00
56811;BME280;42691;47.234;27.494;2023-01-29T04:52:08;99978.72;;;5.68;100.00
56811;BME280;42691;47.234;27.494;2023-01-29T04:59:47;99989.09;;;5.67;100.00
56811;BME280;42691;47.234;27.494;2023-01-29T05:02:15;99989.75;;;5.75;100.00
56811;BME280;42691;47.234;27.494;2023-01-29T05:04:43;99988.78;;;5.79;100.00
56811;BME280;42691;47.234;27.494;2023-01-29T05:07:12;99994.75;;;5.81;100.00
56811;BME280;42691;47.234;27.494;2023-01-29T05:09:38;99991.25;;;5.83;100.00
56811;BME280;42691;47.234;27.494;2023-01-29T05:12:06;99988.66;;;5.85;100.00
56811;BME280;42691;47.234;27.494;2023-01-29T05:14:33;99990.38;;;5.84;100.00
56811;BME280;42691;47.234;27.494;2023-01-29T05:17:02;99988.91;;;5.74;100.00
56811;BME280;42691;47.234;27.494;2023-01-29T05:19:30;99993.06;;;5.80;100.00
56811;BME280;42691;47.234;27.494;2023-01-29T05:21:56;99992.00;;;5.88;100.00
56811;BME280;42691;47.234;27.494;2023-01-29T05:24:24;99991.13;;;5.89;100.00
56811;BME280;42691;47.234;27.494;2023-01-29T05:26:51;99985.91;;;5.92;100.00
56811;BME280;42691;47.234;27.494;2023-01-29T05:29:36;100001.34;;;5.94;100.00
56811;BME280;42691;47.234;27.494;2023-01-29T05:32:02;99996.16;;;5.97;100.00
56811;BME280;42691;47.234;27.494;2023-01-29T05:34:28;99999.53;;;5.99;100.00
56811;BME280;42691;47.234;27.494;2023-01-29T05:36:53;100002.94;;;6.01;100.00
56811;BME280;42691;47.234;27.494;2023-01-29T05:39:19;100001.16;;;6.03;100.00
56811;BME280;42691;47.234;27.494;2023-01-29T05:41:44;99967.09;;;5.86;100.00
56811;BME280;42691;47.234;27.494;2023-01-29T05:44:10;99996.06;;;6.00;100.00
56811;BME280;42691;47.234;27.494;2023-01-29T05:46:36;99999.50;;;6.01;100.00
56811;BME280;42691;47.234;27.494;2023-01-29T05:49:02;99998.69;;;5.99;100.00
56811;BME280;42691;47.234;27.494;2023-01-29T05:51:27;100003.03;;;5.97;100.00
56811;BME280;42691;47.234;27.494;2023-01-29T05:53:53;99996.19;;;5.94;100.00
56811;BME280;42691;47.234;27.494;2023-01-29T05:56:18;100002.19;;;5.94;100.00
56811;BME280;42691;47.234;27.494;2023-01-29T05:58:44;100000.50;;;5.95;100.00
56811;BME280;42691;47.234;27.494;2023-01-29T06:01:14;100013.34;;;5.98;100.00
56811;BME280;42691;47.234;27.494;2023-01-29T06:03:40;100014.22;;;5.97;100.00
56811;BME280;42691;47.234;27.494;2023-01-29T06:06:06;99995.47;;;5.87;100.00
56811;BME280;42691;47.234;27.494;2023-01-29T06:08:31;100004.81;;;5.93;100.00
56811;BME280;42691;47.234;27.494;2023-01-29T06:10:57;100022.00;;;5.94;100.00
56811;BME280;42691;47.234;27.494;2023-01-29T06:13:22;100019.44;;;5.94;100.00
56811;BME280;42691;47.234;27.494;2023-01-29T06:15:48;100014.22;;;5.97;100.00
56811;BME280;42691;47.234;27.494;2023-01-29T06:18:13;100024.47;;;6.00;100.00
56811;BME280;42691;47.234;27.494;2023-01-29T06:20:39;100028.75;;;6.01;100.00
56811;BME280;42691;47.234;27.494;2023-01-29T06:23:04;100028.59;;;6.07;100.00
56811;BME280;42691;47.234;27.494;2023-01-29T06:25:30;100036.44;;;6.04;100.00
56811;BME280;42691;47.234;27.494;2023-01-29T06:27:55;100025.13;;;6.08;100.00
56811;BME280;42691;47.234;27.494;2023-01-29T06:30:21;100021.66;;;6.09;100.00
56811;BME280;42691;47.234;27.494;2023-01-29T06:32:46;100019.91;;;6.11;100.00
56811;BME280;42691;47.234;27.494;2023-01-29T06:35:12;100025.97;;;6.09;100.00
56811;BME280;42691;47.234;27.494;2023-01-29T06:37:37;100024.25;;;6.09;100.00
56811;BME280;42691;47.234;27.494;2023-01-29T06:40:03;100025.94;;;6.10;100.00
56811;BME280;42691;47.234;27.494;2023-01-29T06:42:29;100026.78;;;6.11;100.00
56811;BME280;42691;47.234;27.494;2023-01-29T06:44:55;100026.91;;;6.06;100.00
56811;BME280;42691;47.234;27.494;2023-01-29T06:47:20;100023.59;;;6.01;100.00
56811;BME280;42691;47.234;27.494;2023-01-29T06:49:46;100025.19;;;6.07;100.00
56811;BME280;42691;47.234;27.494;2023-01-29T06:52:11;100024.97;;;6.14;100.00
56811;BME280;42691;47.234;27.494;2023-01-29T06:54:36;100026.84;;;6.09;100.00
56811;BME280;42691;47.234;27.494;2023-01-29T06:57:02;100024.97;;;6.14;100.00
56811;BME280;42691;47.234;27.494;2023-01-29T06:59:28;100018.13;;;6.13;100.00
56811;BME280;42691;47.234;27.494;2023-01-29T07:01:53;100021.66;;;6.09;100.00
56811;BME280;42691;47.234;27.494;2023-01-29T07:04:19;100015.66;;;6.09;100.00
56811;BME280;42691;47.234;27.494;2023-01-29T07:06:44;100015.56;;;6.12;100.00
56811;BME280;42691;47.234;27.494;2023-01-29T07:09:13;100018.19;;;6.10;100.00
56811;BME280;42691;47.234;27.494;2023-01-29T07:11:39;100022.59;;;6.07;100.00
56811;BME280;42691;47.234;27.494;2023-01-29T07:14:05;100019.00;;;6.12;100.00
56811;BME280;42691;47.234;27.494;2023-01-29T07:16:31;100026.59;;;6.18;100.00
56811;BME280;42691;47.234;27.494;2023-01-29T07:18:56;100011.09;;;6.18;100.00
56811;BME280;42691;47.234;27.494;2023-01-29T07:21:22;100023.97;;;6.20;100.00
56811;BME280;42691;47.234;27.494;2023-01-29T07:23:47;100024.91;;;6.17;100.00
56811;BME280;42691;47.234;27.494;2023-01-29T07:26:13;100030.00;;;6.20;100.00
56811;BME280;42691;47.234;27.494;2023-01-29T07:28:39;100036.84;;;6.21;100.00
56811;BME280;42691;47.234;27.494;2023-01-29T07:31:05;100026.63;;;6.17;100.00
56811;BME280;42691;47.234;27.494;2023-01-29T07:33:32;100026.38;;;6.27;100.00
56811;BME280;42691;47.234;27.494;2023-01-29T07:35:57;100040.03;;;6.33;100.00
56811;BME280;42691;47.234;27.494;2023-01-29T07:38:23;100039.00;;;6.40;100.00
56811;BME280;42691;47.234;27.494;2023-01-29T07:40:50;100033.72;;;6.44;100.00
56811;BME280;42691;47.234;27.494;2023-01-29T07:43:15;100031.00;;;6.49;100.00
56811;BME280;42691;47.234;27.494;2023-01-29T07:45:41;100025.06;;;6.45;100.00
56811;BME280;42691;47.234;27.494;2023-01-29T07:48:09;100034.72;;;6.39;100.00
56811;BME280;42691;47.234;27.494;2023-01-29T07:50:35;100018.03;;;6.16;100.00
56811;BME280;42691;47.234;27.494;2023-01-29T07:53:01;100040.06;;;6.31;100.00
56811;BME280;42691;47.234;27.494;2023-01-29T07:55:27;100043.34;;;6.38;100.00
56811;BME280;42691;47.234;27.494;2023-01-29T07:58:00;100044.16;;;6.40;100.00
56811;BME280;42691;47.234;27.494;2023-01-29T08:00:27;100038.88;;;6.44;100.00
56811;BME280;42691;47.234;27.494;2023-01-29T08:02:52;100038.09;;;6.41;100.00
56811;BME280;42691;47.234;27.494;2023-01-29T08:05:18;100034.41;;;6.51;100.00
56811;BME280;42691;47.234;27.494;2023-01-29T08:07:44;100025.91;;;6.46;100.00
56811;BME280;42691;47.234;27.494;2023-01-29T08:10:10;100038.34;;;6.30;100.00
56811;BME280;42691;47.234;27.494;2023-01-29T08:12:35;100040.03;;;6.33;100.00
56811;BME280;42691;47.234;27.494;2023-01-29T08:15:01;100046.91;;;6.34;100.00
56811;BME280;42691;47.234;27.494;2023-01-29T08:17:26;100056.25;;;6.39;100.00
56811;BME280;42691;47.234;27.494;2023-01-29T08:19:52;100033.09;;;6.35;100.00
56811;BME280;42691;47.234;27.494;2023-01-29T08:22:17;100055.88;;;6.53;100.00
56811;BME280;42691;47.234;27.494;2023-01-29T08:24:43;100059.03;;;6.64;100.00
56811;BME280;42691;47.234;27.494;2023-01-29T08:27:08;100054.94;;;6.55;100.00
56811;BME280;42691;47.234;27.494;2023-01-29T08:29:34;100055.84;;;6.54;100.00
56811;BME280;42691;47.234;27.494;2023-01-29T08:32:00;100061.72;;;6.59;100.00
56811;BME280;42691;47.234;27.494;2023-01-29T08:34:25;100056.84;;;6.49;100.00
56811;BME280;42691;47.234;27.494;2023-01-29T08:36:51;100063.88;;;6.44;100.00
56811;BME280;42691;47.234;27.494;2023-01-29T08:39:17;100065.50;;;6.48;100.00
56811;BME280;42691;47.234;27.494;2023-01-29T08:41:43;100067.72;;;6.62;100.00
56811;BME280;42691;47.234;27.494;2023-01-29T08:44:08;100071.81;;;6.69;100.00
56811;BME280;42691;47.234;27.494;2023-01-29T08:46:34;100067.47;;;6.72;100.00
56811;BME280;42691;47.234;27.494;2023-01-29T08:48:59;100052.88;;;6.68;100.00
56811;BME280;42691;47.234;27.494;2023-01-29T08:51:25;100073.09;;;6.86;100.00
56811;BME280;42691;47.234;27.494;2023-01-29T08:53:51;100063.81;;;6.79;100.00
56811;BME280;42691;47.234;27.494;2023-01-29T08:56:16;100069.88;;;6.78;100.00
56811;BME280;42691;47.234;27.494;2023-01-29T08:58:42;100057.91;;;6.74;100.00
56811;BME280;42691;47.234;27.494;2023-01-29T09:01:09;100069.72;;;6.84;100.00
56811;BME280;42691;47.234;27.494;2023-01-29T09:03:35;100068.69;;;6.90;100.00
56811;BME280;42691;47.234;27.494;2023-01-29T09:06:01;100068.88;;;6.84;100.00
56811;BME280;42691;47.234;27.494;2023-01-29T09:08:27;100073.88;;;6.90;100.00
56811;BME280;42691;47.234;27.494;2023-01-29T09:10:52;100050.59;;;6.90;100.00
56811;BME280;42691;47.234;27.494;2023-01-29T09:13:18;100063.31;;;6.98;100.00
56811;BME280;42691;47.234;27.494;2023-01-29T09:15:43;100062.34;;;7.02;100.00
56811;BME280;42691;47.234;27.494;2023-01-29T09:18:09;100052.97;;;6.98;100.00
56811;BME280;42691;47.234;27.494;2023-01-29T09:20:34;100052.91;;;6.99;100.00
56811;BME280;42691;47.234;27.494;2023-01-29T09:23:06;100058.13;;;6.98;100.00
56811;BME280;42691;47.234;27.494;2023-01-29T09:25:33;100045.25;;;6.96;100.00
56811;BME280;42691;47.234;27.494;2023-01-29T09:27:59;100048.69;;;6.97;100.00
56811;BME280;42691;47.234;27.494;2023-01-29T09:30:24;100054.69;;;6.97;100.00
56811;BME280;42691;47.234;27.494;2023-01-29T09:32:50;100052.88;;;7.01;100.00
56811;BME280;42691;47.234;27.494;2023-01-29T09:35:15;100056.31;;;7.01;100.00
56811;BME280;42691;47.234;27.494;2023-01-29T09:37:41;100049.34;;;7.03;100.00
56811;BME280;42691;47.234;27.494;2023-01-29T09:40:22;100044.19;;;7.03;100.00
56811;BME280;42691;47.234;27.494;2023-01-29T09:42:58;100048.38;;;7.09;100.00
56811;BME280;42691;47.234;27.494;2023-01-29T09:45:26;100049.16;;;7.11;100.00
56811;BME280;42691;47.234;27.494;2023-01-29T09:47:57;100048.28;;;7.12;100.00
56811;BME280;42691;47.234;27.494;2023-01-29T09:50:45;100043.00;;;7.15;100.00
56811;BME280;42691;47.234;27.494;2023-01-29T09:56:17;100042.25;;;7.11;100.00
56811;BME280;42691;47.234;27.494;2023-01-29T09:58:43;100044.84;;;7.11;100.00
56811;BME280;42691;47.234;27.494;2023-01-29T10:02:31;100041.03;;;6.92;100.00
56811;BME280;42691;47.234;27.494;2023-01-29T10:07:41;100036.38;;;7.06;100.00
56811;BME280;42691;47.234;27.494;2023-01-29T10:13:22;100030.50;;;7.29;100.00
56811;BME280;42691;47.234;27.494;2023-01-29T10:21:43;100032.38;;;7.24;100.00
56811;BME280;42691;47.234;27.494;2023-01-29T10:24:37;100025.94;;;7.09;100.00
56811;BME280;42691;47.234;27.494;2023-01-29T10:27:15;100023.81;;;7.22;100.00
56811;BME280;42691;47.234;27.494;2023-01-29T10:29:42;100028.16;;;7.21;100.00
56811;BME280;42691;47.234;27.494;2023-01-29T10:32:14;100021.19;;;7.24;100.00
56811;BME280;42691;47.234;27.494;2023-01-29T10:34:56;100022.72;;;7.31;100.00
56811;BME280;42691;47.234;27.494;2023-01-29T10:37:35;100016.72;;;7.29;100.00
56811;BME280;42691;47.234;27.494;2023-01-29T10:40:20;100018.38;;;7.31;100.00
56811;BME280;42691;47.234;27.494;2023-01-29T10:42:59;100017.91;;;7.18;100.00
56811;BME280;42691;47.234;27.494;2023-01-29T10:50:50;100006.22;;;7.33;100.00
56811;BME280;42691;47.234;27.494;2023-01-29T10:59:00;99995.78;;;7.36;100.00
56811;BME280;42691;47.234;27.494;2023-01-29T11:01:29;100001.66;;;7.41;100.00
56811;BME280;42691;47.234;27.494;2023-01-29T11:04:00;99990.63;;;7.36;100.00
56811;BME280;42691;47.234;27.494;2023-01-29T11:06:34;99993.09;;;7.39;100.00
56811;BME280;42691;47.234;27.494;2023-01-29T11:11:43;99999.63;;;7.52;100.00
56811;BME280;42691;47.234;27.494;2023-01-29T11:14:20;100001.28;;;7.55;100.00
56811;BME280;42691;47.234;27.494;2023-01-29T11:16:47;99990.22;;;7.50;100.00
56811;BME280;42691;47.234;27.494;2023-01-29T11:19:14;99988.91;;;7.35;100.00
56811;BME280;42691;47.234;27.494;2023-01-29T11:21:57;99987.78;;;7.16;100.00
56811;BME280;42691;47.234;27.494;2023-01-29T11:24:23;99981.09;;;7.09;100.00
56811;BME280;42691;47.234;27.494;2023-01-29T11:26:51;99984.50;;;7.11;100.00
56811;BME280;42691;47.234;27.494;2023-01-29T11:31:56;99988.31;;;7.27;100.00
56811;BME280;42691;47.234;27.494;2023-01-29T11:34:24;99988.41;;;7.24;100.00
56811;BME280;42691;47.234;27.494;2023-01-29T11:36:56;99980.63;;;7.24;100.00
56811;BME280;42691;47.234;27.494;2023-01-29T11:39:24;99970.00;;;7.33;100.00
56811;BME280;42691;47.234;27.494;2023-01-29T11:41:56;99988.81;;;7.38;100.00
56811;BME280;42691;47.234;27.494;2023-01-29T11:44:32;99968.41;;;7.29;100.00
56811;BME280;42691;47.234;27.494;2023-01-29T11:47:10;99971.47;;;7.42;100.00
56811;BME280;42691;47.234;27.494;2023-01-29T11:49:37;99980.97;;;7.41;100.00
56811;BME280;42691;47.234;27.494;2023-01-29T11:52:07;99971.50;;;7.40;100.00
56811;BME280;42691;47.234;27.494;2023-01-29T11:54:38;99975.72;;;7.44;100.00
56811;BME280;42691;47.234;27.494;2023-01-29T11:57:04;99968.06;;;7.40;100.00
56811;BME280;42691;47.234;27.494;2023-01-29T11:59:41;99956.06;;;7.37;100.00
56811;BME280;42691;47.234;27.494;2023-01-29T12:04:57;99968.13;;;7.38;100.00
56811;BME280;42691;47.234;27.494;2023-01-29T12:07:24;99955.47;;;7.29;100.00
56811;BME280;42691;47.234;27.494;2023-01-29T12:09:55;99976.69;;;7.40;100.00
56811;BME280;42691;47.234;27.494;2023-01-29T12:12:31;99973.28;;;7.38;100.00
56811;BME280;42691;47.234;27.494;2023-01-29T12:15:14;99975.00;;;7.39;100.00
56811;BME280;42691;47.234;27.494;2023-01-29T12:17:44;99972.44;;;7.38;100.00
56811;BME280;42691;47.234;27.494;2023-01-29T12:20:15;99968.31;;;7.32;100.00
56811;BME280;42691;47.234;27.494;2023-01-29T12:22:50;99978.56;;;7.35;100.00
56811;BME280;42691;47.234;27.494;2023-01-29T12:25:57;99980.91;;;7.43;100.00
56811;BME280;42691;47.234;27.494;2023-01-29T12:34:44;99984.50;;;7.39;100.00
56811;BME280;42691;47.234;27.494;2023-01-29T12:40:00;99991.31;;;7.41;100.00
56811;BME280;42691;47.234;27.494;2023-01-29T12:42:26;99987.88;;;7.41;100.00
56811;BME280;42691;47.234;27.494;2023-01-29T12:44:55;99992.16;;;7.43;100.00
56811;BME280;42691;47.234;27.494;2023-01-29T12:47:25;99994.75;;;7.43;100.00
56811;BME280;42691;47.234;27.494;2023-01-29T12:49:56;99999.03;;;7.43;100.00
56811;BME280;42691;47.234;27.494;2023-01-29T12:52:35;100000.75;;;7.44;100.00
56811;BME280;42691;47.234;27.494;2023-01-29T12:55:09;99997.47;;;7.37;100.00
56811;BME280;42691;47.234;27.494;2023-01-29T13:00:19;99997.84;;;7.25;100.00
56811;BME280;42691;47.234;27.494;2023-01-29T13:02:55;99995.38;;;7.22;100.00
56811;BME280;42691;47.234;27.494;2023-01-29T13:08:57;99997.91;;;7.24;100.00
56811;BME280;42691;47.234;27.494;2023-01-29T13:11:08;99995.31;;;7.24;100.00
56811;BME280;42691;47.234;27.494;2023-01-29T13:14:41;99989.28;;;7.23;100.00
56811;BME280;42691;47.234;27.494;2023-01-29T13:16:41;99994.38;;;7.26;100.00
56811;BME280;42691;47.234;27.494;2023-01-29T13:21:49;99970.47;;;7.18;100.00
56811;BME280;42691;47.234;27.494;2023-01-29T13:24:19;99987.41;;;7.28;100.00
56811;BME280;42691;47.234;27.494;2023-01-29T13:26:46;99987.50;;;7.25;100.00
56811;BME280;42691;47.234;27.494;2023-01-29T13:29:21;99991.09;;;7.21;100.00
56811;BME280;42691;47.234;27.494;2023-01-29T13:31:48;99990.19;;;7.22;100.00
56811;BME280;42691;47.234;27.494;2023-01-29T13:37:00;99992.78;;;7.22;100.00
56811;BME280;42691;47.234;27.494;2023-01-29T13:39:32;99986.81;;;7.20;100.00
56811;BME280;42691;47.234;27.494;2023-01-29T13:41:59;99994.69;;;7.15;100.00
56811;BME280;42691;47.234;27.494;2023-01-29T13:44:35;99987.03;;;7.12;100.00
56811;BME280;42691;47.234;27.494;2023-01-29T13:47:04;99986.09;;;7.15;100.00
56811;BME280;42691;47.234;27.494;2023-01-29T13:49:44;99992.97;;;7.16;100.00
56811;BME280;42691;47.234;27.494;2023-01-29T13:52:23;99995.53;;;7.16;100.00
56811;BME280;42691;47.234;27.494;2023-01-29T13:55:00;99990.28;;;7.19;100.00
56811;BME280;42691;47.234;27.494;2023-01-29T13:57:48;99988.63;;;7.16;100.00
56811;BME280;42691;47.234;27.494;2023-01-29T14:02:47;99992.88;;;7.19;100.00
56811;BME280;42691;47.234;27.494;2023-01-29T14:05:59;99990.47;;;7.13;100.00
56811;BME280;42691;47.234;27.494;2023-01-29T14:13:47;99995.53;;;7.16;100.00
56811;BME280;42691;47.234;27.494;2023-01-29T14:18:59;99991.50;;;7.06;100.00
56811;BME280;42691;47.234;27.494;2023-01-29T14:21:33;99991.50;;;7.07;100.00
56811;BME280;42691;47.234;27.494;2023-01-29T14:24:14;99997.47;;;7.09;100.00
56811;BME280;42691;47.234;27.494;2023-01-29T14:26:43;100002.69;;;7.08;100.00
56811;BME280;42691;47.234;27.494;2023-01-29T14:29:18;99995.03;;;7.03;100.00
56811;BME280;42691;47.234;27.494;2023-01-29T14:32:17;99996.69;;;7.06;100.00
56811;BME280;42691;47.234;27.494;2023-01-29T14:34:46;99988.91;;;7.06;100.00
56811;BME280;42691;47.234;27.494;2023-01-29T14:39:53;99984.53;;;7.09;100.00
56811;BME280;42691;47.234;27.494;2023-01-29T14:42:33;99978.75;;;7.00;100.00
56811;BME280;42691;47.234;27.494;2023-01-29T14:45:07;99988.34;;;6.96;100.00
56811;BME280;42691;47.234;27.494;2023-01-29T14:49:59;99985.72;;;6.98;100.00
56811;BME280;42691;47.234;27.494;2023-01-29T14:52:42;99976.25;;;6.97;100.00
56811;BME280;42691;47.234;27.494;2023-01-29T14:55:17;99995.25;;;6.96;100.00
56811;BME280;42691;47.234;27.494;2023-01-29T14:57:47;99986.59;;;6.97;100.00
56811;BME280;42691;47.234;27.494;2023-01-29T15:00:26;99999.53;;;6.97;100.00
56811;BME280;42691;47.234;27.494;2023-01-29T15:02:52;99995.25;;;6.96;100.00
56811;BME280;42691;47.234;27.494;2023-01-29T15:05:24;99992.63;;;6.97;100.00
56811;BME280;42691;47.234;27.494;2023-01-29T15:08:03;99996.16;;;6.95;100.00
56811;BME280;42691;47.234;27.494;2023-01-29T15:15:46;99998.81;;;6.92;100.00